sensor_id;sensor_type;location;lat;lon;timestamp;P1;durP1;ratioP1;P2;durP2;ratioP2
66145;SDS011;52948;60.040;30.320;2024-02-15T00:04:13;9.38;;;5.13;;
66145;SDS011;52948;60.040;30.320;2024-02-15T00:09:15;11.27;;;6.25;;
66145;SDS011;52948;60.040;30.320;2024-02-15T00:14:17;11.50;;;5.22;;
66145;SDS011;52948;60.040;30.320;2024-02-15T00:19:20;11.13;;;5.80;;
66145;SDS011;52948;60.040;30.320;2024-02-15T00:24:23;10.32;;;5.55;;
66145;SDS011;52948;60.040;30.320;2024-02-15T00:29:29;8.40;;;4.93;;
66145;SDS011;52948;60.040;30.320;2024-02-15T00:34:31;9.45;;;5.60;;
66145;SDS011;52948;60.040;30.320;2024-02-15T00:39:33;10.52;;;5.10;;
66145;SDS011;52948;60.040;30.320;2024-02-15T00:44:35;7.25;;;4.20;;
66145;SDS011;52948;60.040;30.320;2024-02-15T00:49:38;10.75;;;5.10;;
66145;SDS011;52948;60.040;30.320;2024-02-15T00:54:42;11.18;;;5.50;;
66145;SDS011;52948;60.040;30.320;2024-02-15T00:59:44;8.70;;;5.15;;
66145;SDS011;52948;60.040;30.320;2024-02-15T01:04:47;8.55;;;5.05;;
66145;SDS011;52948;60.040;30.320;2024-02-15T01:09:49;9.77;;;5.72;;
66145;SDS011;52948;60.040;30.320;2024-02-15T01:14:51;11.93;;;5.90;;
66145;SDS011;52948;60.040;30.320;2024-02-15T01:19:55;11.45;;;5.78;;
66145;SDS011;52948;60.040;30.320;2024-02-15T01:24:57;13.55;;;5.90;;
66145;SDS011;52948;60.040;30.320;2024-02-15T01:29:59;8.88;;;5.63;;
66145;SDS011;52948;60.040;30.320;2024-02-15T01:35:02;12.07;;;5.70;;
66145;SDS011;52948;60.040;30.320;2024-02-15T01:40:06;10.55;;;6.22;;
66145;SDS011;52948;60.040;30.320;2024-02-15T01:45:08;10.43;;;6.22;;
66145;SDS011;52948;60.040;30.320;2024-02-15T01:50:13;10.95;;;5.75;;
66145;SDS011;52948;60.040;30.320;2024-02-15T01:55:17;10.68;;;5.90;;
66145;SDS011;52948;60.040;30.320;2024-02-15T02:00:20;9.85;;;4.97;;
66145;SDS011;52948;60.040;30.320;2024-02-15T02:05:28;8.98;;;5.00;;
66145;SDS011;52948;60.040;30.320;2024-02-15T02:10:32;8.65;;;5.25;;
66145;SDS011;52948;60.040;30.320;2024-02-15T02:15:34;8.68;;;5.40;;
66145;SDS011;52948;60.040;30.320;2024-02-15T02:20:38;10.65;;;5.95;;
66145;SDS011;52948;60.040;30.320;2024-02-15T02:25:41;10.23;;;5.13;;
66145;SDS011;52948;60.040;30.320;2024-02-15T02:30:48;9.55;;;5.20;;
66145;SDS011;52948;60.040;30.320;2024-02-15T02:35:50;9.82;;;5.65;;
66145;SDS011;52948;60.040;30.320;2024-02-15T02:40:52;8.70;;;5.68;;
66145;SDS011;52948;60.040;30.320;2024-02-15T02:45:54;10.65;;;5.13;;
66145;SDS011;52948;60.040;30.320;2024-02-15T02:50:57;12.25;;;5.82;;
66145;SDS011;52948;60.040;30.320;2024-02-15T02:55:59;7.93;;;4.90;;
66145;SDS011;52948;60.040;30.320;2024-02-15T03:01:01;8.95;;;5.45;;
66145;SDS011;52948;60.040;30.320;2024-02-15T03:06:04;10.30;;;5.82;;
66145;SDS011;52948;60.040;30.320;2024-02-15T03:11:06;12.02;;;6.05;;
66145;SDS011;52948;60.040;30.320;2024-02-15T03:16:09;11.25;;;6.07;;
66145;SDS011;52948;60.040;30.320;2024-02-15T03:21:11;11.52;;;6.32;;
66145;SDS011;52948;60.040;30.320;2024-02-15T03:26:14;12.88;;;6.55;;
66145;SDS011;52948;60.040;30.320;2024-02-15T03:31:16;15.77;;;7.25;;
66145;SDS011;52948;60.040;30.320;2024-02-15T03:36:20;13.05;;;6.85;;
66145;SDS011;52948;60.040;30.320;2024-02-15T03:41:26;13.50;;;6.57;;
66145;SDS011;52948;60.040;30.320;2024-02-15T03:46:30;14.88;;;7.20;;
66145;SDS011;52948;60.040;30.320;2024-02-15T03:51:32;15.88;;;7.90;;
66145;SDS011;52948;60.040;30.320;2024-02-15T03:56:35;11.43;;;5.60;;
66145;SDS011;52948;60.040;30.320;2024-02-15T04:01:38;12.00;;;4.78;;
66145;SDS011;52948;60.040;30.320;2024-02-15T04:06:40;16.00;;;5.88;;
66145;SDS011;52948;60.040;30.320;2024-02-15T04:11:44;11.57;;;4.05;;
66145;SDS011;52948;60.040;30.320;2024-02-15T04:16:48;10.50;;;4.30;;
66145;SDS011;52948;60.040;30.320;2024-02-15T04:21:51;14.32;;;5.78;;
66145;SDS011;52948;60.040;30.320;2024-02-15T04:26:53;9.43;;;4.60;;
66145;SDS011;52948;60.040;30.320;2024-02-15T04:31:56;6.40;;;3.70;;
66145;SDS011;52948;60.040;30.320;2024-02-15T04:37:00;10.10;;;4.95;;
66145;SDS011;52948;60.040;30.320;2024-02-15T04:42:03;10.05;;;5.85;;
66145;SDS011;52948;60.040;30.320;2024-02-15T04:47:08;9.43;;;4.65;;
66145;SDS011;52948;60.040;30.320;2024-02-15T04:52:10;13.02;;;5.30;;
66145;SDS011;52948;60.040;30.320;2024-02-15T04:57:13;10.32;;;5.82;;
66145;SDS011;52948;60.040;30.320;2024-02-15T05:02:16;9.90;;;5.45;;
66145;SDS011;52948;60.040;30.320;2024-02-15T05:07:22;14.50;;;5.75;;
66145;SDS011;52948;60.040;30.320;2024-02-15T05:12:24;4.03;;;3.00;;
66145;SDS011;52948;60.040;30.320;2024-02-15T05:17:27;9.85;;;4.72;;
66145;SDS011;52948;60.040;30.320;2024-02-15T05:22:33;11.75;;;5.22;;
66145;SDS011;52948;60.040;30.320;2024-02-15T05:27:35;12.88;;;4.47;;
66145;SDS011;52948;60.040;30.320;2024-02-15T05:32:38;8.70;;;3.95;;
66145;SDS011;52948;60.040;30.320;2024-02-15T05:37:45;11.55;;;4.75;;
66145;SDS011;52948;60.040;30.320;2024-02-15T05:42:54;9.20;;;5.38;;
66145;SDS011;52948;60.040;30.320;2024-02-15T05:53:00;11.30;;;5.90;;
66145;SDS011;52948;60.040;30.320;2024-02-15T05:58:03;12.13;;;4.78;;
66145;SDS011;52948;60.040;30.320;2024-02-15T06:03:06;10.18;;;3.88;;
66145;SDS011;52948;60.040;30.320;2024-02-15T06:08:09;12.98;;;6.20;;
66145;SDS011;52948;60.040;30.320;2024-02-15T06:13:12;8.00;;;5.07;;
66145;SDS011;52948;60.040;30.320;2024-02-15T06:18:14;12.15;;;5.18;;
66145;SDS011;52948;60.040;30.320;2024-02-15T06:23:19;16.13;;;6.85;;
66145;SDS011;52948;60.040;30.320;2024-02-15T06:28:21;14.00;;;4.70;;
66145;SDS011;52948;60.040;30.320;2024-02-15T06:33:42;13.57;;;5.55;;
66145;SDS011;52948;60.040;30.320;2024-02-15T06:39:03;10.80;;;5.75;;
66145;SDS011;52948;60.040;30.320;2024-02-15T06:44:24;9.38;;;4.63;;
66145;SDS011;52948;60.040;30.320;2024-02-15T06:49:26;9.00;;;5.22;;
66145;SDS011;52948;60.040;30.320;2024-02-15T06:54:29;15.20;;;5.78;;
66145;SDS011;52948;60.040;30.320;2024-02-15T06:59:31;13.38;;;6.75;;
66145;SDS011;52948;60.040;30.320;2024-02-15T07:04:34;3.55;;;3.25;;
66145;SDS011;52948;60.040;30.320;2024-02-15T07:09:36;10.88;;;5.85;;
66145;SDS011;52948;60.040;30.320;2024-02-15T07:14:39;13.25;;;5.15;;
66145;SDS011;52948;60.040;30.320;2024-02-15T07:19:44;15.45;;;6.95;;
66145;SDS011;52948;60.040;30.320;2024-02-15T07:24:46;17.15;;;7.30;;
66145;SDS011;52948;60.040;30.320;2024-02-15T07:29:48;19.15;;;7.03;;
66145;SDS011;52948;60.040;30.320;2024-02-15T07:34:51;12.02;;;6.22;;
66145;SDS011;52948;60.040;30.320;2024-02-15T07:39:54;19.63;;;7.90;;
66145;SDS011;52948;60.040;30.320;2024-02-15T07:44:56;18.52;;;7.28;;
66145;SDS011;52948;60.040;30.320;2024-02-15T07:49:58;13.85;;;7.45;;
66145;SDS011;52948;60.040;30.320;2024-02-15T07:55:00;17.95;;;7.32;;
66145;SDS011;52948;60.040;30.320;2024-02-15T08:00:10;14.27;;;5.65;;
66145;SDS011;52948;60.040;30.320;2024-02-15T08:05:13;10.15;;;5.80;;
66145;SDS011;52948;60.040;30.320;2024-02-15T08:10:16;17.77;;;8.68;;
66145;SDS011;52948;60.040;30.320;2024-02-15T08:15:19;13.70;;;6.80;;
66145;SDS011;52948;60.040;30.320;2024-02-15T08:20:21;20.35;;;6.15;;
66145;SDS011;52948;60.040;30.320;2024-02-15T08:25:24;19.17;;;7.97;;
66145;SDS011;52948;60.040;30.320;2024-02-15T08:30:26;24.85;;;9.40;;
66145;SDS011;52948;60.040;30.320;2024-02-15T08:35:29;12.63;;;6.40;;
66145;SDS011;52948;60.040;30.320;2024-02-15T08:40:31;17.38;;;7.13;;
66145;SDS011;52948;60.040;30.320;2024-02-15T08:45:34;14.18;;;7.15;;
66145;SDS011;52948;60.040;30.320;2024-02-15T08:50:37;19.42;;;7.07;;
66145;SDS011;52948;60.040;30.320;2024-02-15T08:55:39;14.57;;;7.15;;
66145;SDS011;52948;60.040;30.320;2024-02-15T09:00:41;19.67;;;7.65;;
66145;SDS011;52948;60.040;30.320;2024-02-15T09:05:46;18.77;;;8.85;;
66145;SDS011;52948;60.040;30.320;2024-02-15T09:10:51;22.63;;;9.25;;
66145;SDS011;52948;60.040;30.320;2024-02-15T09:15:54;20.73;;;8.65;;
66145;SDS011;52948;60.040;30.320;2024-02-15T09:20:57;11.60;;;4.53;;
66145;SDS011;52948;60.040;30.320;2024-02-15T09:25:59;20.70;;;7.47;;
66145;SDS011;52948;60.040;30.320;2024-02-15T09:31:01;18.65;;;8.77;;
66145;SDS011;52948;60.040;30.320;2024-02-15T09:36:03;19.23;;;8.25;;
66145;SDS011;52948;60.040;30.320;2024-02-15T09:41:06;18.33;;;8.68;;
66145;SDS011;52948;60.040;30.320;2024-02-15T09:46:09;18.30;;;7.45;;
66145;SDS011;52948;60.040;30.320;2024-02-15T09:51:11;16.73;;;7.43;;
66145;SDS011;52948;60.040;30.320;2024-02-15T09:56:14;20.27;;;8.75;;
66145;SDS011;52948;60.040;30.320;2024-02-15T10:01:18;14.52;;;6.57;;
66145;SDS011;52948;60.040;30.320;2024-02-15T10:06:21;7.53;;;4.82;;
66145;SDS011;52948;60.040;30.320;2024-02-15T10:11:24;19.27;;;7.47;;
66145;SDS011;52948;60.040;30.320;2024-02-15T10:16:26;14.52;;;7.28;;
66145;SDS011;52948;60.040;30.320;2024-02-15T10:21:29;29.05;;;12.10;;
66145;SDS011;52948;60.040;30.320;2024-02-15T10:26:33;29.02;;;12.35;;
66145;SDS011;52948;60.040;30.320;2024-02-15T10:31:37;26.98;;;12.70;;
66145;SDS011;52948;60.040;30.320;2024-02-15T10:36:40;31.67;;;12.35;;
66145;SDS011;52948;60.040;30.320;2024-02-15T10:41:46;32.35;;;14.18;;
66145;SDS011;52948;60.040;30.320;2024-02-15T10:46:49;33.10;;;13.75;;
66145;SDS011;52948;60.040;30.320;2024-02-15T10:51:57;26.77;;;13.02;;
66145;SDS011;52948;60.040;30.320;2024-02-15T10:57:06;25.83;;;13.57;;
66145;SDS011;52948;60.040;30.320;2024-02-15T11:02:26;30.45;;;13.75;;
66145;SDS011;52948;60.040;30.320;2024-02-15T11:07:29;29.65;;;14.43;;
66145;SDS011;52948;60.040;30.320;2024-02-15T11:12:33;29.55;;;13.52;;
66145;SDS011;52948;60.040;30.320;2024-02-15T11:22:41;22.25;;;11.20;;
66145;SDS011;52948;60.040;30.320;2024-02-15T11:27:58;28.10;;;14.38;;
66145;SDS011;52948;60.040;30.320;2024-02-15T11:33:33;26.73;;;13.60;;
66145;SDS011;52948;60.040;30.320;2024-02-15T11:38:40;31.45;;;14.73;;
66145;SDS011;52948;60.040;30.320;2024-02-15T11:43:45;30.40;;;14.15;;
66145;SDS011;52948;60.040;30.320;2024-02-15T11:48:54;29.42;;;13.48;;
66145;SDS011;52948;60.040;30.320;2024-02-15T11:54:01;32.03;;;15.02;;
66145;SDS011;52948;60.040;30.320;2024-02-15T11:59:07;24.95;;;13.30;;
66145;SDS011;52948;60.040;30.320;2024-02-15T12:04:10;25.85;;;13.15;;
66145;SDS011;52948;60.040;30.320;2024-02-15T12:09:30;30.50;;;13.63;;
66145;SDS011;52948;60.040;30.320;2024-02-15T12:15:01;27.20;;;13.32;;
66145;SDS011;52948;60.040;30.320;2024-02-15T12:20:24;26.08;;;12.77;;
66145;SDS011;52948;60.040;30.320;2024-02-15T12:25:27;27.50;;;12.52;;
66145;SDS011;52948;60.040;30.320;2024-02-15T12:30:33;25.55;;;13.13;;
66145;SDS011;52948;60.040;30.320;2024-02-15T12:35:38;30.50;;;13.07;;
66145;SDS011;52948;60.040;30.320;2024-02-15T12:40:40;27.67;;;12.77;;
66145;SDS011;52948;60.040;30.320;2024-02-15T12:45:42;24.38;;;12.40;;
66145;SDS011;52948;60.040;30.320;2024-02-15T12:50:44;27.95;;;12.75;;
66145;SDS011;52948;60.040;30.320;2024-02-15T12:55:54;22.85;;;11.15;;
66145;SDS011;52948;60.040;30.320;2024-02-15T13:00:57;23.45;;;11.48;;
66145;SDS011;52948;60.040;30.320;2024-02-15T13:06:00;28.73;;;12.38;;
66145;SDS011;52948;60.040;30.320;2024-02-15T13:11:03;27.30;;;12.70;;
66145;SDS011;52948;60.040;30.320;2024-02-15T13:16:06;26.15;;;13.10;;
66145;SDS011;52948;60.040;30.320;2024-02-15T13:21:10;31.77;;;13.50;;
66145;SDS011;52948;60.040;30.320;2024-02-15T13:26:12;26.38;;;13.38;;
66145;SDS011;52948;60.040;30.320;2024-02-15T13:31:17;26.38;;;13.32;;
66145;SDS011;52948;60.040;30.320;2024-02-15T13:36:19;26.63;;;13.00;;
66145;SDS011;52948;60.040;30.320;2024-02-15T13:41:22;28.85;;;15.30;;
66145;SDS011;52948;60.040;30.320;2024-02-15T13:46:25;26.20;;;13.18;;
66145;SDS011;52948;60.040;30.320;2024-02-15T13:51:27;27.17;;;12.05;;
66145;SDS011;52948;60.040;30.320;2024-02-15T13:56:29;27.95;;;12.88;;
66145;SDS011;52948;60.040;30.320;2024-02-15T14:01:32;27.98;;;13.82;;
66145;SDS011;52948;60.040;30.320;2024-02-15T14:06:36;25.20;;;13.32;;
66145;SDS011;52948;60.040;30.320;2024-02-15T14:11:39;28.45;;;14.05;;
66145;SDS011;52948;60.040;30.320;2024-02-15T14:16:42;32.40;;;15.07;;
66145;SDS011;52948;60.040;30.320;2024-02-15T14:21:45;29.35;;;13.82;;
66145;SDS011;52948;60.040;30.320;2024-02-15T14:26:47;28.88;;;13.30;;
66145;SDS011;52948;60.040;30.320;2024-02-15T14:31:52;27.75;;;12.50;;
66145;SDS011;52948;60.040;30.320;2024-02-15T14:37:14;26.35;;;12.07;;
66145;SDS011;52948;60.040;30.320;2024-02-15T14:42:18;27.33;;;14.48;;
66145;SDS011;52948;60.040;30.320;2024-02-15T14:47:22;27.73;;;14.30;;
66145;SDS011;52948;60.040;30.320;2024-02-15T14:52:25;28.80;;;13.85;;
66145;SDS011;52948;60.040;30.320;2024-02-15T14:57:28;25.35;;;12.85;;
66145;SDS011;52948;60.040;30.320;2024-02-15T15:02:31;29.23;;;14.68;;
66145;SDS011;52948;60.040;30.320;2024-02-15T15:07:34;26.65;;;14.13;;
66145;SDS011;52948;60.040;30.320;2024-02-15T15:12:55;29.13;;;14.02;;
66145;SDS011;52948;60.040;30.320;2024-02-15T15:17:58;29.83;;;12.32;;
66145;SDS011;52948;60.040;30.320;2024-02-15T15:23:01;29.50;;;13.68;;
66145;SDS011;52948;60.040;30.320;2024-02-15T15:28:04;28.90;;;14.27;;
66145;SDS011;52948;60.040;30.320;2024-02-15T15:33:06;30.50;;;14.90;;
66145;SDS011;52948;60.040;30.320;2024-02-15T15:38:11;30.23;;;14.52;;
66145;SDS011;52948;60.040;30.320;2024-02-15T15:43:13;29.48;;;13.88;;
66145;SDS011;52948;60.040;30.320;2024-02-15T15:48:16;24.30;;;12.85;;
66145;SDS011;52948;60.040;30.320;2024-02-15T15:53:19;29.05;;;13.23;;
66145;SDS011;52948;60.040;30.320;2024-02-15T15:58:22;29.20;;;13.85;;
66145;SDS011;52948;60.040;30.320;2024-02-15T16:03:26;29.42;;;13.52;;
66145;SDS011;52948;60.040;30.320;2024-02-15T16:08:29;27.27;;;12.38;;
66145;SDS011;52948;60.040;30.320;2024-02-15T16:13:32;25.42;;;12.45;;
66145;SDS011;52948;60.040;30.320;2024-02-15T16:18:34;27.35;;;13.23;;
66145;SDS011;52948;60.040;30.320;2024-02-15T16:23:36;29.75;;;13.32;;
66145;SDS011;52948;60.040;30.320;2024-02-15T16:28:39;26.48;;;12.35;;
66145;SDS011;52948;60.040;30.320;2024-02-15T16:33:41;22.45;;;11.30;;
66145;SDS011;52948;60.040;30.320;2024-02-15T16:38:44;26.67;;;13.57;;
66145;SDS011;52948;60.040;30.320;2024-02-15T16:43:46;26.77;;;11.55;;
66145;SDS011;52948;60.040;30.320;2024-02-15T16:48:49;23.27;;;13.55;;
66145;SDS011;52948;60.040;30.320;2024-02-15T16:53:56;23.75;;;12.75;;
66145;SDS011;52948;60.040;30.320;2024-02-15T16:58:59;25.83;;;11.63;;
66145;SDS011;52948;60.040;30.320;2024-02-15T17:04:01;26.92;;;13.65;;
66145;SDS011;52948;60.040;30.320;2024-02-15T17:09:07;28.52;;;13.45;;
66145;SDS011;52948;60.040;30.320;2024-02-15T17:14:10;23.75;;;12.32;;
66145;SDS011;52948;60.040;30.320;2024-02-15T17:19:12;28.20;;;16.50;;
66145;SDS011;52948;60.040;30.320;2024-02-15T17:24:14;26.10;;;13.60;;
66145;SDS011;52948;60.040;30.320;2024-02-15T17:29:20;25.60;;;12.55;;
66145;SDS011;52948;60.040;30.320;2024-02-15T17:34:23;30.15;;;14.35;;
66145;SDS011;52948;60.040;30.320;2024-02-15T17:39:25;32.22;;;14.07;;
66145;SDS011;52948;60.040;30.320;2024-02-15T17:44:27;26.45;;;13.13;;
66145;SDS011;52948;60.040;30.320;2024-02-15T17:49:30;31.30;;;14.63;;
66145;SDS011;52948;60.040;30.320;2024-02-15T17:54:32;31.20;;;14.32;;
66145;SDS011;52948;60.040;30.320;2024-02-15T17:59:35;30.52;;;13.70;;
66145;SDS011;52948;60.040;30.320;2024-02-15T18:04:37;30.27;;;14.18;;
66145;SDS011;52948;60.040;30.320;2024-02-15T18:09:40;32.83;;;14.25;;
66145;SDS011;52948;60.040;30.320;2024-02-15T18:14:42;28.60;;;14.32;;
66145;SDS011;52948;60.040;30.320;2024-02-15T18:19:46;36.58;;;17.08;;
66145;SDS011;52948;60.040;30.320;2024-02-15T18:24:48;32.85;;;14.57;;
66145;SDS011;52948;60.040;30.320;2024-02-15T18:29:50;32.58;;;15.45;;
66145;SDS011;52948;60.040;30.320;2024-02-15T18:34:52;37.10;;;15.25;;
66145;SDS011;52948;60.040;30.320;2024-02-15T18:39:54;30.77;;;14.32;;
66145;SDS011;52948;60.040;30.320;2024-02-15T18:44:57;36.30;;;16.00;;
66145;SDS011;52948;60.040;30.320;2024-02-15T18:50:01;31.88;;;14.52;;
66145;SDS011;52948;60.040;30.320;2024-02-15T18:55:04;33.53;;;14.90;;
66145;SDS011;52948;60.040;30.320;2024-02-15T19:00:11;35.17;;;15.57;;
66145;SDS011;52948;60.040;30.320;2024-02-15T19:05:14;30.80;;;13.48;;
66145;SDS011;52948;60.040;30.320;2024-02-15T19:10:22;35.60;;;15.50;;
66145;SDS011;52948;60.040;30.320;2024-02-15T19:15:25;36.03;;;16.42;;
66145;SDS011;52948;60.040;30.320;2024-02-15T19:20:28;35.38;;;17.25;;
66145;SDS011;52948;60.040;30.320;2024-02-15T19:25:31;37.53;;;16.52;;
66145;SDS011;52948;60.040;30.320;2024-02-15T19:30:33;32.42;;;16.05;;
66145;SDS011;52948;60.040;30.320;2024-02-15T19:35:35;33.50;;;15.55;;
66145;SDS011;52948;60.040;30.320;2024-02-15T19:40:37;43.20;;;17.08;;
66145;SDS011;52948;60.040;30.320;2024-02-15T19:45:43;28.50;;;14.70;;
66145;SDS011;52948;60.040;30.320;2024-02-15T19:50:46;32.95;;;16.35;;
66145;SDS011;52948;60.040;30.320;2024-02-15T19:55:48;34.15;;;14.98;;
66145;SDS011;52948;60.040;30.320;2024-02-15T20:00:50;38.08;;;15.50;;
66145;SDS011;52948;60.040;30.320;2024-02-15T20:05:53;34.60;;;16.13;;
66145;SDS011;52948;60.040;30.320;2024-02-15T20:11:00;36.58;;;15.88;;
66145;SDS011;52948;60.040;30.320;2024-02-15T20:16:02;35.53;;;13.65;;
66145;SDS011;52948;60.040;30.320;2024-02-15T20:21:06;30.45;;;12.90;;
66145;SDS011;52948;60.040;30.320;2024-02-15T20:26:11;29.25;;;12.80;;
66145;SDS011;52948;60.040;30.320;2024-02-15T20:31:15;29.75;;;13.32;;
66145;SDS011;52948;60.040;30.320;2024-02-15T20:36:19;31.92;;;13.48;;
66145;SDS011;52948;60.040;30.320;2024-02-15T20:41:22;31.02;;;13.90;;
66145;SDS011;52948;60.040;30.320;2024-02-15T20:46:28;32.08;;;13.90;;
66145;SDS011;52948;60.040;30.320;2024-02-15T20:51:34;34.88;;;13.73;;
66145;SDS011;52948;60.040;30.320;2024-02-15T20:56:37;30.95;;;13.23;;
66145;SDS011;52948;60.040;30.320;2024-02-15T21:01:40;32.40;;;13.25;;
66145;SDS011;52948;60.040;30.320;2024-02-15T21:06:42;36.78;;;14.20;;
66145;SDS011;52948;60.040;30.320;2024-02-15T21:11:45;30.30;;;12.63;;
66145;SDS011;52948;60.040;30.320;2024-02-15T21:16:47;38.30;;;13.93;;
66145;SDS011;52948;60.040;30.320;2024-02-15T21:21:49;33.00;;;12.63;;
66145;SDS011;52948;60.040;30.320;2024-02-15T21:26:52;28.55;;;12.50;;
66145;SDS011;52948;60.040;30.320;2024-02-15T21:31:54;33.83;;;13.95;;
66145;SDS011;52948;60.040;30.320;2024-02-15T21:36:56;37.10;;;13.20;;
66145;SDS011;52948;60.040;30.320;2024-02-15T21:41:58;35.08;;;13.32;;
66145;SDS011;52948;60.040;30.320;2024-02-15T21:47:01;32.80;;;13.48;;
66145;SDS011;52948;60.040;30.320;2024-02-15T21:52:04;33.22;;;11.93;;
66145;SDS011;52948;60.040;30.320;2024-02-15T21:57:06;33.13;;;13.70;;
66145;SDS011;52948;60.040;30.320;2024-02-15T22:02:09;28.83;;;12.68;;
66145;SDS011;52948;60.040;30.320;2024-02-15T22:07:13;29.27;;;11.98;;
66145;SDS011;52948;60.040;30.320;2024-02-15T22:17:23;29.30;;;12.55;;
66145;SDS011;52948;60.040;30.320;2024-02-15T22:22:26;31.00;;;14.13;;
66145;SDS011;52948;60.040;30.320;2024-02-15T22:27:28;31.42;;;11.73;;
66145;SDS011;52948;60.040;30.320;2024-02-15T22:32:30;29.08;;;12.60;;
66145;SDS011;52948;60.040;30.320;2024-02-15T22:37:32;28.05;;;11.55;;
66145;SDS011;52948;60.040;30.320;2024-02-15T22:42:35;28.92;;;12.10;;
66145;SDS011;52948;60.040;30.320;2024-02-15T22:47:38;30.52;;;12.63;;
66145;SDS011;52948;60.040;30.320;2024-02-15T22:52:41;29.80;;;11.90;;
66145;SDS011;52948;60.040;30.320;2024-02-15T22:57:43;26.42;;;12.25;;
66145;SDS011;52948;60.040;30.320;2024-02-15T23:02:45;33.00;;;11.70;;
66145;SDS011;52948;60.040;30.320;2024-02-15T23:07:47;30.38;;;13.88;;
66145;SDS011;52948;60.040;30.320;2024-02-15T23:12:52;29.90;;;12.63;;
66145;SDS011;52948;60.040;30.320;2024-02-15T23:17:54;26.70;;;13.15;;
66145;SDS011;52948;60.040;30.320;2024-02-15T23:22:56;25.15;;;11.43;;
66145;SDS011;52948;60.040;30.320;2024-02-15T23:27:58;29.95;;;13.75;;
66145;SDS011;52948;60.040;30.320;2024-02-15T23:33:00;26.15;;;11.50;;
66145;SDS011;52948;60.040;30.320;2024-02-15T23:38:03;27.00;;;12.00;;
66145;SDS011;52948;60.040;30.320;2024-02-15T23:43:23;27.48;;;11.38;;
66145;SDS011;52948;60.040;30.320;2024-02-15T23:48:26;25.73;;;11.68;;
66145;SDS011;52948;60.040;30.320;2024-02-15T23:53:28;28.20;;;11.68;;
66145;SDS011;52948;60.040;30.320;2024-02-15T23:58:30;27.70;;;11.00;;
